sensor_id;sensor_type;location;lat;lon;timestamp;pressure;altitude;pressure_sealevel;temperature;humidity
69247;BME280;56358;56.328;43.992;2023-06-10T00:00:11;100813.56;;;12.71;56.79
69247;BME280;56358;56.328;43.992;2023-06-10T00:02:15;100796.06;;;12.66;57.20
69247;BME280;56358;56.328;43.992;2023-06-10T00:04:17;100792.44;;;12.55;57.29
69247;BME280;56358;56.328;43.992;2023-06-10T00:06:18;100795.25;;;12.54;57.04
69247;BME280;56358;56.328;43.992;2023-06-10T00:08:19;100792.91;;;12.49;57.71
69247;BME280;56358;56.328;43.992;2023-06-10T00:10:20;100793.19;;;12.46;57.61
69247;BME280;56358;56.328;43.992;2023-06-10T00:12:20;100764.84;;;12.19;57.50
69247;BME280;56358;56.328;43.992;2023-06-10T00:14:21;100795.88;;;12.35;58.26
69247;BME280;56358;56.328;43.992;2023-06-10T00:16:22;100765.84;;;12.07;57.80
69247;BME280;56358;56.328;43.992;2023-06-10T00:18:23;100803.69;;;12.27;58.09
69247;BME280;56358;56.328;43.992;2023-06-10T00:20:23;100797.94;;;12.20;58.87
69247;BME280;56358;56.328;43.992;2023-06-10T00:22:26;100804.44;;;12.17;58.31
69247;BME280;56358;56.328;43.992;2023-06-10T00:24:30;100802.75;;;12.16;58.95
69247;BME280;56358;56.328;43.992;2023-06-10T00:26:31;100799.91;;;12.06;59.81
69247;BME280;56358;56.328;43.992;2023-06-10T00:28:33;100816.78;;;12.09;59.72
69247;BME280;56358;56.328;43.992;2023-06-10T00:30:33;100814.44;;;12.04;60.39
69247;BME280;56358;56.328;43.992;2023-06-10T00:32:35;100812.13;;;11.99;60.16
69247;BME280;56358;56.328;43.992;2023-06-10T00:34:36;100813.34;;;11.95;60.18
69247;BME280;56358;56.328;43.992;2023-06-10T00:36:37;100821.50;;;11.94;59.88
69247;BME280;56358;56.328;43.992;2023-06-10T00:38:38;100827.47;;;11.86;60.02
69247;BME280;56358;56.328;43.992;2023-06-10T00:40:41;100825.13;;;11.81;59.71
69247;BME280;56358;56.328;43.992;2023-06-10T00:42:42;100834.19;;;11.80;59.96
69247;BME280;56358;56.328;43.992;2023-06-10T00:44:43;100831.22;;;11.72;59.43
69247;BME280;56358;56.328;43.992;2023-06-10T00:46:44;100836.50;;;11.73;59.62
69247;BME280;56358;56.328;43.992;2023-06-10T00:48:45;100837.69;;;11.69;60.21
69247;BME280;56358;56.328;43.992;2023-06-10T00:50:47;100841.56;;;11.65;59.90
69247;BME280;56358;56.328;43.992;2023-06-10T00:52:47;100801.59;;;11.38;59.50
69247;BME280;56358;56.328;43.992;2023-06-10T00:54:49;100826.13;;;11.45;59.88
69247;BME280;56358;56.328;43.992;2023-06-10T00:56:50;100856.31;;;11.48;59.91
69247;BME280;56358;56.328;43.992;2023-06-10T00:58:51;100853.94;;;11.44;60.25
69247;BME280;56358;56.328;43.992;2023-06-10T01:00:52;100848.56;;;11.32;59.93
69247;BME280;56358;56.328;43.992;2023-06-10T01:02:53;100861.97;;;11.32;60.07
69247;BME280;56358;56.328;43.992;2023-06-10T01:04:54;100859.41;;;11.31;60.52
69247;BME280;56358;56.328;43.992;2023-06-10T01:07:23;100864.38;;;11.24;60.70
69247;BME280;56358;56.328;43.992;2023-06-10T01:09:33;100862.38;;;11.15;60.90
69247;BME280;56358;56.328;43.992;2023-06-10T01:11:47;100866.78;;;11.16;60.87
69247;BME280;56358;56.328;43.992;2023-06-10T01:13:50;100867.63;;;11.16;60.75
69247;BME280;56358;56.328;43.992;2023-06-10T01:15:52;100877.84;;;11.11;60.84
69247;BME280;56358;56.328;43.992;2023-06-10T01:17:57;100874.44;;;11.09;60.73
69247;BME280;56358;56.328;43.992;2023-06-10T01:19:59;100879.47;;;11.01;60.97
69247;BME280;56358;56.328;43.992;2023-06-10T01:22:00;100861.59;;;10.88;60.96
69247;BME280;56358;56.328;43.992;2023-06-10T01:24:01;100888.00;;;10.95;61.45
69247;BME280;56358;56.328;43.992;2023-06-10T01:26:06;100897.00;;;10.94;61.49
69247;BME280;56358;56.328;43.992;2023-06-10T01:30:19;100903.97;;;10.96;61.44
69247;BME280;56358;56.328;43.992;2023-06-10T01:32:32;100896.75;;;10.97;61.18
69247;BME280;56358;56.328;43.992;2023-06-10T01:34:35;100867.22;;;10.72;61.10
69247;BME280;56358;56.328;43.992;2023-06-10T01:36:38;100829.53;;;10.50;61.25
69247;BME280;56358;56.328;43.992;2023-06-10T01:38:43;100835.41;;;10.55;61.48
69247;BME280;56358;56.328;43.992;2023-06-10T01:40:46;100904.63;;;10.87;60.96
69247;BME280;56358;56.328;43.992;2023-06-10T01:42:47;100913.03;;;10.82;61.71
69247;BME280;56358;56.328;43.992;2023-06-10T01:44:47;100910.53;;;10.79;61.63
69247;BME280;56358;56.328;43.992;2023-06-10T01:46:48;100862.44;;;10.52;61.77
69247;BME280;56358;56.328;43.992;2023-06-10T01:48:49;100869.97;;;10.60;62.24
69247;BME280;56358;56.328;43.992;2023-06-10T01:50:50;100904.88;;;10.84;62.27
69247;BME280;56358;56.328;43.992;2023-06-10T01:52:51;100911.06;;;10.84;62.39
69247;BME280;56358;56.328;43.992;2023-06-10T01:54:51;100910.34;;;10.82;62.55
69247;BME280;56358;56.328;43.992;2023-06-10T01:56:52;100918.47;;;10.81;62.56
69247;BME280;56358;56.328;43.992;2023-06-10T01:58:53;100913.75;;;10.84;61.93
69247;BME280;56358;56.328;43.992;2023-06-10T02:00:59;100916.31;;;10.86;62.48
69247;BME280;56358;56.328;43.992;2023-06-10T02:03:00;100923.53;;;10.85;61.62
69247;BME280;56358;56.328;43.992;2023-06-10T02:05:00;100914.41;;;10.88;61.53
69247;BME280;56358;56.328;43.992;2023-06-10T02:07:01;100918.81;;;10.89;62.08
69247;BME280;56358;56.328;43.992;2023-06-10T02:09:04;100917.50;;;10.82;62.07
69247;BME280;56358;56.328;43.992;2023-06-10T02:11:05;100938.19;;;10.93;61.97
69247;BME280;56358;56.328;43.992;2023-06-10T02:13:07;100933.59;;;10.95;61.76
69247;BME280;56358;56.328;43.992;2023-06-10T02:15:08;100936.28;;;10.95;62.67
69247;BME280;56358;56.328;43.992;2023-06-10T02:17:09;100897.69;;;10.71;61.81
69247;BME280;56358;56.328;43.992;2023-06-10T02:19:32;100908.31;;;10.73;61.46
69247;BME280;56358;56.328;43.992;2023-06-10T02:21:36;100946.03;;;10.96;61.77
69247;BME280;56358;56.328;43.992;2023-06-10T02:23:37;100948.50;;;10.99;62.02
69247;BME280;56358;56.328;43.992;2023-06-10T02:25:38;100954.81;;;10.98;62.04
69247;BME280;56358;56.328;43.992;2023-06-10T02:27:39;100945.16;;;10.95;62.00
69247;BME280;56358;56.328;43.992;2023-06-10T02:29:39;100928.13;;;10.83;61.90
69247;BME280;56358;56.328;43.992;2023-06-10T02:31:41;100956.03;;;10.94;62.20
69247;BME280;56358;56.328;43.992;2023-06-10T02:33:42;100919.47;;;10.67;62.14
69247;BME280;56358;56.328;43.992;2023-06-10T02:35:43;100951.09;;;10.87;62.30
69247;BME280;56358;56.328;43.992;2023-06-10T02:37:44;100952.91;;;11.00;62.46
69247;BME280;56358;56.328;43.992;2023-06-10T02:39:45;100932.94;;;10.91;61.89
69247;BME280;56358;56.328;43.992;2023-06-10T02:41:46;100958.78;;;11.05;62.13
69247;BME280;56358;56.328;43.992;2023-06-10T02:43:47;100956.09;;;11.05;61.06
69247;BME280;56358;56.328;43.992;2023-06-10T02:45:47;100957.81;;;11.06;61.54
69247;BME280;56358;56.328;43.992;2023-06-10T02:47:48;100960.38;;;11.07;61.87
69247;BME280;56358;56.328;43.992;2023-06-10T02:49:49;100930.16;;;10.93;62.24
69247;BME280;56358;56.328;43.992;2023-06-10T02:51:50;100959.28;;;11.23;61.50
69247;BME280;56358;56.328;43.992;2023-06-10T02:53:53;100973.94;;;11.30;61.39
69247;BME280;56358;56.328;43.992;2023-06-10T02:55:54;100926.97;;;11.12;60.88
69247;BME280;56358;56.328;43.992;2023-06-10T02:57:55;100978.09;;;11.47;61.25
69247;BME280;56358;56.328;43.992;2023-06-10T02:59:56;100971.63;;;11.50;60.89
69247;BME280;56358;56.328;43.992;2023-06-10T03:01:56;100981.81;;;11.57;59.90
69247;BME280;56358;56.328;43.992;2023-06-10T03:03:57;100977.28;;;11.58;59.95
69247;BME280;56358;56.328;43.992;2023-06-10T03:05:59;100979.97;;;11.58;59.34
69247;BME280;56358;56.328;43.992;2023-06-10T03:07:59;100973.41;;;11.62;59.73
69247;BME280;56358;56.328;43.992;2023-06-10T03:10:00;100990.88;;;11.68;59.46
69247;BME280;56358;56.328;43.992;2023-06-10T03:12:01;100985.50;;;11.68;60.06
69247;BME280;56358;56.328;43.992;2023-06-10T03:14:02;100949.91;;;11.53;59.42
69247;BME280;56358;56.328;43.992;2023-06-10T03:16:03;100965.75;;;11.69;59.66
69247;BME280;56358;56.328;43.992;2023-06-10T03:18:05;100995.97;;;11.84;59.53
69247;BME280;56358;56.328;43.992;2023-06-10T03:20:07;100989.38;;;11.88;59.09
69247;BME280;56358;56.328;43.992;2023-06-10T03:22:12;100957.22;;;11.75;58.89
69247;BME280;56358;56.328;43.992;2023-06-10T03:24:13;100992.16;;;11.99;58.76
69247;BME280;56358;56.328;43.992;2023-06-10T03:26:14;100998.38;;;12.00;58.10
69247;BME280;56358;56.328;43.992;2023-06-10T03:28:16;100981.41;;;11.99;58.22
69247;BME280;56358;56.328;43.992;2023-06-10T03:30:17;100989.38;;;12.12;57.65
69247;BME280;56358;56.328;43.992;2023-06-10T03:32:18;100999.03;;;12.15;57.79
69247;BME280;56358;56.328;43.992;2023-06-10T03:34:18;101004.81;;;12.21;57.83
69247;BME280;56358;56.328;43.992;2023-06-10T03:36:19;100998.84;;;12.29;57.84
69247;BME280;56358;56.328;43.992;2023-06-10T03:38:20;100989.34;;;12.36;57.99
69247;BME280;56358;56.328;43.992;2023-06-10T03:40:21;100999.50;;;12.44;57.48
69247;BME280;56358;56.328;43.992;2023-06-10T03:42:21;100997.69;;;12.45;57.26
69247;BME280;56358;56.328;43.992;2023-06-10T03:44:22;100998.28;;;12.48;56.76
69247;BME280;56358;56.328;43.992;2023-06-10T03:46:23;100967.94;;;12.23;57.32
69247;BME280;56358;56.328;43.992;2023-06-10T03:48:24;101006.97;;;12.52;56.98
69247;BME280;56358;56.328;43.992;2023-06-10T03:50:25;100987.25;;;12.40;57.04
69247;BME280;56358;56.328;43.992;2023-06-10T03:52:26;100993.19;;;12.56;56.94
69247;BME280;56358;56.328;43.992;2023-06-10T03:54:27;101009.19;;;12.69;56.92
69247;BME280;56358;56.328;43.992;2023-06-10T03:56:28;101007.50;;;12.80;56.37
69247;BME280;56358;56.328;43.992;2023-06-10T03:58:29;101011.28;;;12.88;55.65
69247;BME280;56358;56.328;43.992;2023-06-10T04:00:30;101017.03;;;12.95;55.57
69247;BME280;56358;56.328;43.992;2023-06-10T04:02:30;101016.44;;;13.03;55.53
69247;BME280;56358;56.328;43.992;2023-06-10T04:04:33;101016.16;;;13.06;56.00
69247;BME280;56358;56.328;43.992;2023-06-10T04:06:33;100999.56;;;13.01;56.20
69247;BME280;56358;56.328;43.992;2023-06-10T04:08:34;101016.31;;;13.16;55.09
69247;BME280;56358;56.328;43.992;2023-06-10T04:10:36;101008.09;;;13.06;54.51
69247;BME280;56358;56.328;43.992;2023-06-10T04:12:37;100985.84;;;12.93;54.74
69247;BME280;56358;56.328;43.992;2023-06-10T04:14:38;101022.53;;;13.16;54.29
69247;BME280;56358;56.328;43.992;2023-06-10T04:16:39;101023.78;;;13.12;54.49
69247;BME280;56358;56.328;43.992;2023-06-10T04:18:41;101017.41;;;13.02;54.98
69247;BME280;56358;56.328;43.992;2023-06-10T04:20:45;101014.22;;;13.08;54.68
69247;BME280;56358;56.328;43.992;2023-06-10T04:22:45;101029.38;;;13.20;54.98
69247;BME280;56358;56.328;43.992;2023-06-10T04:24:46;101032.97;;;13.21;53.23
69247;BME280;56358;56.328;43.992;2023-06-10T04:26:47;101033.44;;;13.26;53.11
69247;BME280;56358;56.328;43.992;2023-06-10T04:28:48;101034.78;;;13.32;53.89
69247;BME280;56358;56.328;43.992;2023-06-10T04:30:48;100999.78;;;13.20;53.64
69247;BME280;56358;56.328;43.992;2023-06-10T04:32:49;101043.47;;;13.47;53.09
69247;BME280;56358;56.328;43.992;2023-06-10T04:34:50;100966.97;;;13.15;53.05
69247;BME280;56358;56.328;43.992;2023-06-10T04:36:50;100997.81;;;13.45;52.39
69247;BME280;56358;56.328;43.992;2023-06-10T04:38:51;101051.88;;;13.76;52.12
69247;BME280;56358;56.328;43.992;2023-06-10T04:40:52;101037.88;;;13.82;51.76
69247;BME280;56358;56.328;43.992;2023-06-10T04:42:53;101040.19;;;13.87;51.69
69247;BME280;56358;56.328;43.992;2023-06-10T04:44:54;101039.72;;;13.93;51.49
69247;BME280;56358;56.328;43.992;2023-06-10T04:46:54;101044.69;;;13.98;51.57
69247;BME280;56358;56.328;43.992;2023-06-10T04:48:56;101038.81;;;14.04;51.22
69247;BME280;56358;56.328;43.992;2023-06-10T04:50:58;101050.31;;;14.06;50.78
69247;BME280;56358;56.328;43.992;2023-06-10T04:52:59;101006.00;;;13.87;50.23
69247;BME280;56358;56.328;43.992;2023-06-10T04:55:00;101039.78;;;14.03;49.82
69247;BME280;56358;56.328;43.992;2023-06-10T04:57:00;101043.16;;;14.16;49.94
69247;BME280;56358;56.328;43.992;2023-06-10T04:59:01;101030.78;;;14.14;49.52
69247;BME280;56358;56.328;43.992;2023-06-10T05:01:02;101031.47;;;14.27;49.59
69247;BME280;56358;56.328;43.992;2023-06-10T05:03:03;101017.47;;;14.33;48.83
69247;BME280;56358;56.328;43.992;2023-06-10T05:05:04;101042.69;;;14.65;48.95
69247;BME280;56358;56.328;43.992;2023-06-10T05:07:05;101049.47;;;14.80;48.71
69247;BME280;56358;56.328;43.992;2023-06-10T05:09:06;101054.09;;;14.99;47.46
69247;BME280;56358;56.328;43.992;2023-06-10T05:11:06;101056.84;;;15.09;47.47
69247;BME280;56358;56.328;43.992;2023-06-10T05:13:07;101060.81;;;15.05;48.74
69247;BME280;56358;56.328;43.992;2023-06-10T05:15:08;101063.59;;;14.94;49.36
69247;BME280;56358;56.328;43.992;2023-06-10T05:17:09;101023.53;;;14.47;49.06
69247;BME280;56358;56.328;43.992;2023-06-10T05:19:10;101053.50;;;14.32;49.14
69247;BME280;56358;56.328;43.992;2023-06-10T05:21:11;101064.25;;;14.11;50.25
69247;BME280;56358;56.328;43.992;2023-06-10T05:23:12;101066.25;;;13.98;50.95
69247;BME280;56358;56.328;43.992;2023-06-10T05:25:13;101063.97;;;13.93;51.24
69247;BME280;56358;56.328;43.992;2023-06-10T05:27:14;101059.16;;;13.97;50.46
69247;BME280;56358;56.328;43.992;2023-06-10T05:29:15;101067.69;;;14.13;50.05
69247;BME280;56358;56.328;43.992;2023-06-10T05:31:16;101075.31;;;14.29;49.02
69247;BME280;56358;56.328;43.992;2023-06-10T05:33:16;101066.69;;;14.47;48.23
69247;BME280;56358;56.328;43.992;2023-06-10T05:35:18;101076.28;;;14.61;48.42
69247;BME280;56358;56.328;43.992;2023-06-10T05:37:18;101074.28;;;14.74;48.19
69247;BME280;56358;56.328;43.992;2023-06-10T05:39:19;101073.28;;;14.75;48.33
69247;BME280;56358;56.328;43.992;2023-06-10T05:41:20;101087.13;;;14.82;47.51
69247;BME280;56358;56.328;43.992;2023-06-10T05:43:22;101082.28;;;14.85;46.80
69247;BME280;56358;56.328;43.992;2023-06-10T05:45:23;101085.25;;;14.82;47.51
69247;BME280;56358;56.328;43.992;2023-06-10T05:47:24;101087.34;;;14.79;47.67
69247;BME280;56358;56.328;43.992;2023-06-10T05:49:24;101092.31;;;14.73;47.89
69247;BME280;56358;56.328;43.992;2023-06-10T05:51:25;101081.69;;;14.61;47.59
69247;BME280;56358;56.328;43.992;2023-06-10T05:53:27;101092.22;;;14.64;47.70
69247;BME280;56358;56.328;43.992;2023-06-10T05:55:28;101111.88;;;14.54;48.82
69247;BME280;56358;56.328;43.992;2023-06-10T05:57:29;101079.44;;;14.45;46.67
69247;BME280;56358;56.328;43.992;2023-06-10T05:59:30;101102.66;;;14.57;47.03
69247;BME280;56358;56.328;43.992;2023-06-10T06:01:30;101102.66;;;14.68;47.14
69247;BME280;56358;56.328;43.992;2023-06-10T06:03:31;101105.75;;;14.85;47.06
69247;BME280;56358;56.328;43.992;2023-06-10T06:05:32;101115.59;;;14.96;46.84
69247;BME280;56358;56.328;43.992;2023-06-10T06:07:35;101110.22;;;14.96;47.03
69247;BME280;56358;56.328;43.992;2023-06-10T06:09:36;101108.50;;;14.95;46.49
69247;BME280;56358;56.328;43.992;2023-06-10T06:11:36;101068.88;;;14.74;46.31
69247;BME280;56358;56.328;43.992;2023-06-10T06:13:37;101106.59;;;14.85;45.81
69247;BME280;56358;56.328;43.992;2023-06-10T06:15:38;101111.00;;;14.86;46.08
69247;BME280;56358;56.328;43.992;2023-06-10T06:17:39;101103.88;;;14.85;46.83
69247;BME280;56358;56.328;43.992;2023-06-10T06:19:40;101115.28;;;14.89;46.74
69247;BME280;56358;56.328;43.992;2023-06-10T06:21:40;101073.44;;;14.73;47.19
69247;BME280;56358;56.328;43.992;2023-06-10T06:23:41;101105.50;;;15.19;45.50
69247;BME280;56358;56.328;43.992;2023-06-10T06:25:42;101072.09;;;15.20;45.16
69247;BME280;56358;56.328;43.992;2023-06-10T06:27:42;101078.13;;;15.33;44.68
69247;BME280;56358;56.328;43.992;2023-06-10T06:29:43;101092.03;;;15.59;44.04
69247;BME280;56358;56.328;43.992;2023-06-10T06:31:44;101119.66;;;15.73;44.98
69247;BME280;56358;56.328;43.992;2023-06-10T06:33:44;101114.25;;;15.73;45.27
69247;BME280;56358;56.328;43.992;2023-06-10T06:35:45;101092.06;;;15.29;45.24
69247;BME280;56358;56.328;43.992;2023-06-10T06:37:46;101126.44;;;15.27;45.26
69247;BME280;56358;56.328;43.992;2023-06-10T06:39:47;101115.56;;;15.07;46.25
69247;BME280;56358;56.328;43.992;2023-06-10T06:41:47;101081.31;;;14.86;46.14
69247;BME280;56358;56.328;43.992;2023-06-10T06:43:48;101131.19;;;15.13;45.97
69247;BME280;56358;56.328;43.992;2023-06-10T06:45:49;101092.47;;;15.03;45.68
69247;BME280;56358;56.328;43.992;2023-06-10T06:47:50;101122.66;;;15.39;45.90
69247;BME280;56358;56.328;43.992;2023-06-10T06:49:51;101115.28;;;15.41;45.10
69247;BME280;56358;56.328;43.992;2023-06-10T06:51:52;101062.28;;;14.88;45.88
69247;BME280;56358;56.328;43.992;2023-06-10T06:53:53;101134.69;;;15.25;46.50
69247;BME280;56358;56.328;43.992;2023-06-10T06:55:57;101128.75;;;15.31;45.43
69247;BME280;56358;56.328;43.992;2023-06-10T06:57:57;101125.28;;;15.50;44.71
69247;BME280;56358;56.328;43.992;2023-06-10T06:59:59;101138.00;;;15.38;44.99
69247;BME280;56358;56.328;43.992;2023-06-10T07:01:59;101138.50;;;15.22;45.72
69247;BME280;56358;56.328;43.992;2023-06-10T07:04:00;101142.41;;;15.08;46.44
69247;BME280;56358;56.328;43.992;2023-06-10T07:06:01;101119.41;;;14.93;45.87
69247;BME280;56358;56.328;43.992;2023-06-10T07:08:02;101131.34;;;14.90;44.63
69247;BME280;56358;56.328;43.992;2023-06-10T07:10:03;101136.94;;;14.99;44.43
69247;BME280;56358;56.328;43.992;2023-06-10T07:12:05;101145.25;;;15.07;42.28
69247;BME280;56358;56.328;43.992;2023-06-10T07:14:07;101137.19;;;15.17;42.38
69247;BME280;56358;56.328;43.992;2023-06-10T07:16:07;101141.97;;;15.34;41.45
69247;BME280;56358;56.328;43.992;2023-06-10T07:18:08;101151.31;;;15.51;41.26
69247;BME280;56358;56.328;43.992;2023-06-10T07:20:09;101151.53;;;15.79;42.63
69247;BME280;56358;56.328;43.992;2023-06-10T07:22:10;101097.88;;;15.65;42.39
69247;BME280;56358;56.328;43.992;2023-06-10T07:24:11;101138.94;;;15.99;41.41
69247;BME280;56358;56.328;43.992;2023-06-10T07:26:12;101128.88;;;16.01;40.38
69247;BME280;56358;56.328;43.992;2023-06-10T07:28:14;101133.69;;;15.98;40.38
69247;BME280;56358;56.328;43.992;2023-06-10T07:30:14;101135.41;;;15.99;41.10
69247;BME280;56358;56.328;43.992;2023-06-10T07:32:15;101144.22;;;15.91;42.76
69247;BME280;56358;56.328;43.992;2023-06-10T07:34:16;101115.41;;;15.39;42.44
69247;BME280;56358;56.328;43.992;2023-06-10T07:36:17;101155.44;;;15.55;41.74
69247;BME280;56358;56.328;43.992;2023-06-10T07:38:18;101154.03;;;15.61;40.69
69247;BME280;56358;56.328;43.992;2023-06-10T07:40:18;101148.78;;;15.59;40.43
69247;BME280;56358;56.328;43.992;2023-06-10T07:42:19;101155.94;;;15.70;40.27
69247;BME280;56358;56.328;43.992;2023-06-10T07:44:20;101152.31;;;15.91;39.80
69247;BME280;56358;56.328;43.992;2023-06-10T07:46:21;101142.97;;;16.05;39.08
69247;BME280;56358;56.328;43.992;2023-06-10T07:48:22;101161.63;;;16.18;39.71
69247;BME280;56358;56.328;43.992;2023-06-10T07:50:23;101131.59;;;15.70;40.92
69247;BME280;56358;56.328;43.992;2023-06-10T07:52:24;101170.25;;;15.61;42.31
69247;BME280;56358;56.328;43.992;2023-06-10T07:54:26;101163.13;;;15.29;41.87
69247;BME280;56358;56.328;43.992;2023-06-10T07:56:27;101121.94;;;14.85;43.11
69247;BME280;56358;56.328;43.992;2023-06-10T07:58:27;101131.19;;;14.92;42.85
69247;BME280;56358;56.328;43.992;2023-06-10T08:00:28;101163.00;;;15.31;42.82
69247;BME280;56358;56.328;43.992;2023-06-10T08:02:29;101165.66;;;15.52;41.38
69247;BME280;56358;56.328;43.992;2023-06-10T08:04:30;101163.41;;;15.57;41.98
69247;BME280;56358;56.328;43.992;2023-06-10T08:06:31;101170.84;;;15.65;41.76
69247;BME280;56358;56.328;43.992;2023-06-10T08:08:32;101167.78;;;15.48;39.10
69247;BME280;56358;56.328;43.992;2023-06-10T08:10:33;101174.72;;;15.41;37.68
69247;BME280;56358;56.328;43.992;2023-06-10T08:12:34;101173.03;;;15.50;37.87
69247;BME280;56358;56.328;43.992;2023-06-10T08:14:35;101138.06;;;15.48;37.66
69247;BME280;56358;56.328;43.992;2023-06-10T08:16:37;101176.19;;;15.86;39.25
69247;BME280;56358;56.328;43.992;2023-06-10T08:18:38;101184.63;;;15.92;37.93
69247;BME280;56358;56.328;43.992;2023-06-10T08:20:38;101190.78;;;15.73;37.56
69247;BME280;56358;56.328;43.992;2023-06-10T08:22:39;101192.34;;;15.66;36.88
69247;BME280;56358;56.328;43.992;2023-06-10T08:24:40;101156.16;;;15.57;35.62
69247;BME280;56358;56.328;43.992;2023-06-10T08:26:41;101193.91;;;15.90;35.99
69247;BME280;56358;56.328;43.992;2023-06-10T08:28:41;101206.56;;;15.99;35.89
69247;BME280;56358;56.328;43.992;2023-06-10T08:30:42;101189.22;;;16.02;34.01
69247;BME280;56358;56.328;43.992;2023-06-10T08:32:43;101188.13;;;16.14;34.96
69247;BME280;56358;56.328;43.992;2023-06-10T08:34:44;101180.59;;;16.28;34.57
69247;BME280;56358;56.328;43.992;2023-06-10T08:36:44;101188.44;;;16.40;34.81
69247;BME280;56358;56.328;43.992;2023-06-10T08:38:45;101152.81;;;16.35;35.74
69247;BME280;56358;56.328;43.992;2023-06-10T08:40:46;101191.03;;;16.81;35.77
69247;BME280;56358;56.328;43.992;2023-06-10T08:43:03;101186.22;;;16.95;35.22
69247;BME280;56358;56.328;43.992;2023-06-10T08:45:07;101192.75;;;17.02;34.80
69247;BME280;56358;56.328;43.992;2023-06-10T08:47:16;101185.91;;;17.17;34.10
69247;BME280;56358;56.328;43.992;2023-06-10T08:49:18;101176.47;;;17.21;34.18
69247;BME280;56358;56.328;43.992;2023-06-10T08:51:23;101204.84;;;17.27;36.16
69247;BME280;56358;56.328;43.992;2023-06-10T08:53:29;101197.72;;;17.06;35.19
69247;BME280;56358;56.328;43.992;2023-06-10T08:55:52;101192.84;;;17.30;35.34
69247;BME280;56358;56.328;43.992;2023-06-10T08:57:53;101186.72;;;17.28;34.36
69247;BME280;56358;56.328;43.992;2023-06-10T08:59:56;101181.72;;;17.33;34.76
69247;BME280;56358;56.328;43.992;2023-06-10T09:01:58;101195.00;;;17.26;35.18
69247;BME280;56358;56.328;43.992;2023-06-10T09:03:59;101202.66;;;17.40;34.53
69247;BME280;56358;56.328;43.992;2023-06-10T09:06:01;101179.31;;;17.30;32.85
69247;BME280;56358;56.328;43.992;2023-06-10T09:08:04;101201.06;;;17.48;32.76
69247;BME280;56358;56.328;43.992;2023-06-10T09:10:05;101200.38;;;17.36;32.48
69247;BME280;56358;56.328;43.992;2023-06-10T09:12:08;101195.97;;;17.35;31.91
69247;BME280;56358;56.328;43.992;2023-06-10T09:14:09;101192.97;;;17.38;32.25
69247;BME280;56358;56.328;43.992;2023-06-10T09:16:10;101207.34;;;17.48;33.24
69247;BME280;56358;56.328;43.992;2023-06-10T09:18:12;101197.44;;;17.67;33.03
69247;BME280;56358;56.328;43.992;2023-06-10T09:20:13;101187.19;;;17.61;33.22
69247;BME280;56358;56.328;43.992;2023-06-10T09:22:14;101201.06;;;17.48;33.68
69247;BME280;56358;56.328;43.992;2023-06-10T09:24:14;101175.28;;;17.34;34.28
69247;BME280;56358;56.328;43.992;2023-06-10T09:26:15;101209.28;;;17.66;33.53
69247;BME280;56358;56.328;43.992;2023-06-10T09:28:16;101205.81;;;17.73;32.95
69247;BME280;56358;56.328;43.992;2023-06-10T09:30:28;101201.16;;;17.66;31.95
69247;BME280;56358;56.328;43.992;2023-06-10T09:32:29;101200.28;;;17.65;32.92
69247;BME280;56358;56.328;43.992;2023-06-10T09:34:31;101198.44;;;17.66;31.65
69247;BME280;56358;56.328;43.992;2023-06-10T09:36:33;101196.78;;;17.83;32.42
69247;BME280;56358;56.328;43.992;2023-06-10T09:38:34;101172.31;;;18.02;32.46
69247;BME280;56358;56.328;43.992;2023-06-10T09:40:51;101208.81;;;18.18;32.30
69247;BME280;56358;56.328;43.992;2023-06-10T09:42:59;101204.94;;;17.92;31.82
69247;BME280;56358;56.328;43.992;2023-06-10T09:45:03;101167.06;;;17.63;31.77
69247;BME280;56358;56.328;43.992;2023-06-10T09:47:06;101201.06;;;17.95;31.09
69247;BME280;56358;56.328;43.992;2023-06-10T09:49:07;101189.97;;;18.34;31.42
69247;BME280;56358;56.328;43.992;2023-06-10T09:51:09;101191.22;;;18.76;30.79
69247;BME280;56358;56.328;43.992;2023-06-10T09:53:11;101202.25;;;19.11;30.32
69247;BME280;56358;56.328;43.992;2023-06-10T09:55:12;101211.63;;;19.16;29.22
69247;BME280;56358;56.328;43.992;2023-06-10T09:57:13;101224.09;;;19.45;28.80
69247;BME280;56358;56.328;43.992;2023-06-10T09:59:14;101209.03;;;19.59;27.59
69247;BME280;56358;56.328;43.992;2023-06-10T10:01:16;101186.84;;;19.46;27.56
69247;BME280;56358;56.328;43.992;2023-06-10T10:03:22;101208.56;;;19.98;27.71
69247;BME280;56358;56.328;43.992;2023-06-10T10:05:23;101205.25;;;20.29;27.22
69247;BME280;56358;56.328;43.992;2023-06-10T10:07:24;101178.22;;;20.44;27.31
69247;BME280;56358;56.328;43.992;2023-06-10T10:09:24;101216.81;;;20.82;27.26
69247;BME280;56358;56.328;43.992;2023-06-10T10:11:26;101216.34;;;20.36;28.17
69247;BME280;56358;56.328;43.992;2023-06-10T10:13:27;101218.00;;;20.12;27.17
69247;BME280;56358;56.328;43.992;2023-06-10T10:15:31;101204.63;;;20.52;26.79
69247;BME280;56358;56.328;43.992;2023-06-10T10:17:34;101201.28;;;20.91;26.75
69247;BME280;56358;56.328;43.992;2023-06-10T10:19:42;101200.72;;;20.38;27.69
69247;BME280;56358;56.328;43.992;2023-06-10T10:21:52;101185.22;;;19.26;28.62
69247;BME280;56358;56.328;43.992;2023-06-10T10:24:03;101216.75;;;19.19;29.13
69247;BME280;56358;56.328;43.992;2023-06-10T10:26:09;101216.44;;;19.49;27.84
69247;BME280;56358;56.328;43.992;2023-06-10T10:28:15;101220.22;;;19.82;26.46
69247;BME280;56358;56.328;43.992;2023-06-10T10:30:20;101216.34;;;20.44;27.36